sensor_id;sensor_type;location;lat;lon;timestamp;temperature;humidity
71237;DHT22;58984;51.960;5.582;2022-08-01T00:00:29;27.40;52.40
71237;DHT22;58984;51.960;5.582;2022-08-01T00:02:54;27.40;52.40
71237;DHT22;58984;51.960;5.582;2022-08-01T00:05:19;27.40;52.40
71237;DHT22;58984;51.960;5.582;2022-08-01T00:07:45;27.40;52.40
71237;DHT22;58984;51.960;5.582;2022-08-01T00:10:12;27.40;52.40
71237;DHT22;58984;51.960;5.582;2022-08-01T00:12:38;27.40;52.40
71237;DHT22;58984;51.960;5.582;2022-08-01T00:15:04;27.40;52.40
71237;DHT22;58984;51.960;5.582;2022-08-01T00:17:30;27.40;52.40
71237;DHT22;58984;51.960;5.582;2022-08-01T00:19:56;27.30;52.40
71237;DHT22;58984;51.960;5.582;2022-08-01T00:22:21;27.30;52.30
71237;DHT22;58984;51.960;5.582;2022-08-01T00:24:47;27.40;52.40
71237;DHT22;58984;51.960;5.582;2022-08-01T00:27:12;27.40;52.40
71237;DHT22;58984;51.960;5.582;2022-08-01T00:29:38;27.30;52.30
71237;DHT22;58984;51.960;5.582;2022-08-01T00:32:03;27.30;51.80
71237;DHT22;58984;51.960;5.582;2022-08-01T00:34:29;27.30;52.30
71237;DHT22;58984;51.960;5.582;2022-08-01T00:36:54;27.30;52.30
71237;DHT22;58984;51.960;5.582;2022-08-01T00:39:20;27.30;52.30
71237;DHT22;58984;51.960;5.582;2022-08-01T00:41:45;27.30;52.30
71237;DHT22;58984;51.960;5.582;2022-08-01T00:44:11;27.30;52.40
71237;DHT22;58984;51.960;5.582;2022-08-01T00:46:36;27.30;52.30
71237;DHT22;58984;51.960;5.582;2022-08-01T00:49:02;27.30;52.30
71237;DHT22;58984;51.960;5.582;2022-08-01T00:51:27;27.20;52.30
71237;DHT22;58984;51.960;5.582;2022-08-01T00:53:53;27.30;52.40
71237;DHT22;58984;51.960;5.582;2022-08-01T00:56:19;27.30;52.30
71237;DHT22;58984;51.960;5.582;2022-08-01T00:58:46;27.20;52.30
71237;DHT22;58984;51.960;5.582;2022-08-01T01:01:12;27.20;52.30
71237;DHT22;58984;51.960;5.582;2022-08-01T01:03:37;27.20;52.30
71237;DHT22;58984;51.960;5.582;2022-08-01T01:08:30;27.20;52.30
71237;DHT22;58984;51.960;5.582;2022-08-01T01:11:01;27.20;52.30
71237;DHT22;58984;51.960;5.582;2022-08-01T01:16:02;27.20;52.30
71237;DHT22;58984;51.960;5.582;2022-08-01T01:18:34;27.20;52.40
71237;DHT22;58984;51.960;5.582;2022-08-01T01:21:05;27.20;52.40
71237;DHT22;58984;51.960;5.582;2022-08-01T01:31:19;27.20;52.40
71237;DHT22;58984;51.960;5.582;2022-08-01T01:33:45;27.10;52.40
71237;DHT22;58984;51.960;5.582;2022-08-01T01:36:11;27.10;52.40
71237;DHT22;58984;51.960;5.582;2022-08-01T01:38:42;27.10;52.40
71237;DHT22;58984;51.960;5.582;2022-08-01T01:41:08;27.10;52.40
71237;DHT22;58984;51.960;5.582;2022-08-01T01:43:35;27.10;52.50
71237;DHT22;58984;51.960;5.582;2022-08-01T01:46:02;27.10;52.40
71237;DHT22;58984;51.960;5.582;2022-08-01T01:48:28;27.10;52.40
71237;DHT22;58984;51.960;5.582;2022-08-01T01:50:54;27.10;52.50
71237;DHT22;58984;51.960;5.582;2022-08-01T01:53:21;27.10;52.50
71237;DHT22;58984;51.960;5.582;2022-08-01T01:55:50;27.10;52.40
71237;DHT22;58984;51.960;5.582;2022-08-01T01:58:17;27.10;52.50
71237;DHT22;58984;51.960;5.582;2022-08-01T02:00:44;27.10;52.50
71237;DHT22;58984;51.960;5.582;2022-08-01T02:03:11;27.10;52.50
71237;DHT22;58984;51.960;5.582;2022-08-01T02:05:37;27.10;52.50
71237;DHT22;58984;51.960;5.582;2022-08-01T02:08:03;27.10;52.50
71237;DHT22;58984;51.960;5.582;2022-08-01T02:10:29;27.10;52.50
71237;DHT22;58984;51.960;5.582;2022-08-01T02:12:56;27.10;52.50
71237;DHT22;58984;51.960;5.582;2022-08-01T02:15:22;27.10;52.50
71237;DHT22;58984;51.960;5.582;2022-08-01T02:17:48;27.10;52.60
71237;DHT22;58984;51.960;5.582;2022-08-01T02:20:14;27.10;52.60
71237;DHT22;58984;51.960;5.582;2022-08-01T02:22:52;27.00;52.50
71237;DHT22;58984;51.960;5.582;2022-08-01T02:25:36;27.00;52.50
71237;DHT22;58984;51.960;5.582;2022-08-01T02:28:07;27.00;52.60
71237;DHT22;58984;51.960;5.582;2022-08-01T02:30:35;27.00;52.60
71237;DHT22;58984;51.960;5.582;2022-08-01T02:35:33;27.00;52.60
71237;DHT22;58984;51.960;5.582;2022-08-01T02:38:00;27.00;52.60
71237;DHT22;58984;51.960;5.582;2022-08-01T02:40:27;27.00;52.60
71237;DHT22;58984;51.960;5.582;2022-08-01T02:42:53;27.00;52.60
71237;DHT22;58984;51.960;5.582;2022-08-01T02:45:20;27.00;52.60
71237;DHT22;58984;51.960;5.582;2022-08-01T02:47:48;27.00;52.60
71237;DHT22;58984;51.960;5.582;2022-08-01T02:50:15;27.00;53.30
71237;DHT22;58984;51.960;5.582;2022-08-01T02:52:41;27.00;52.60
71237;DHT22;58984;51.960;5.582;2022-08-01T02:55:09;26.90;53.20
71237;DHT22;58984;51.960;5.582;2022-08-01T02:57:35;26.90;52.60
71237;DHT22;58984;51.960;5.582;2022-08-01T03:00:03;26.90;52.60
71237;DHT22;58984;51.960;5.582;2022-08-01T03:02:29;26.90;52.70
71237;DHT22;58984;51.960;5.582;2022-08-01T03:04:56;26.90;52.60
71237;DHT22;58984;51.960;5.582;2022-08-01T03:07:22;26.90;52.60
71237;DHT22;58984;51.960;5.582;2022-08-01T03:09:49;26.90;52.70
71237;DHT22;58984;51.960;5.582;2022-08-01T03:12:16;26.90;52.60
71237;DHT22;58984;51.960;5.582;2022-08-01T03:14:44;26.90;52.70
71237;DHT22;58984;51.960;5.582;2022-08-01T03:17:10;26.90;52.70
71237;DHT22;58984;51.960;5.582;2022-08-01T03:19:36;26.90;52.70
71237;DHT22;58984;51.960;5.582;2022-08-01T03:22:04;26.90;52.80
71237;DHT22;58984;51.960;5.582;2022-08-01T03:24:31;26.90;52.80
71237;DHT22;58984;51.960;5.582;2022-08-01T03:26:57;26.90;52.80
71237;DHT22;58984;51.960;5.582;2022-08-01T03:29:24;26.90;52.80
71237;DHT22;58984;51.960;5.582;2022-08-01T03:31:50;26.90;52.80
71237;DHT22;58984;51.960;5.582;2022-08-01T03:34:16;26.90;52.80
71237;DHT22;58984;51.960;5.582;2022-08-01T03:36:45;26.90;52.80
71237;DHT22;58984;51.960;5.582;2022-08-01T03:39:11;26.80;52.80
71237;DHT22;58984;51.960;5.582;2022-08-01T03:41:39;26.80;52.80
71237;DHT22;58984;51.960;5.582;2022-08-01T03:44:07;26.80;52.80
71237;DHT22;58984;51.960;5.582;2022-08-01T03:46:36;26.80;52.80
71237;DHT22;58984;51.960;5.582;2022-08-01T03:49:06;26.80;52.80
71237;DHT22;58984;51.960;5.582;2022-08-01T03:51:33;26.80;52.80
71237;DHT22;58984;51.960;5.582;2022-08-01T03:53:59;26.80;52.80
71237;DHT22;58984;51.960;5.582;2022-08-01T03:56:25;26.80;52.90
71237;DHT22;58984;51.960;5.582;2022-08-01T03:58:52;26.80;52.90
71237;DHT22;58984;51.960;5.582;2022-08-01T04:01:17;26.80;52.90
71237;DHT22;58984;51.960;5.582;2022-08-01T04:03:44;26.80;52.90
71237;DHT22;58984;51.960;5.582;2022-08-01T04:06:10;26.80;52.90
71237;DHT22;58984;51.960;5.582;2022-08-01T04:08:36;26.80;52.90
71237;DHT22;58984;51.960;5.582;2022-08-01T04:11:01;26.80;52.90
71237;DHT22;58984;51.960;5.582;2022-08-01T04:13:27;26.80;52.90
71237;DHT22;58984;51.960;5.582;2022-08-01T04:15:52;26.80;52.90
71237;DHT22;58984;51.960;5.582;2022-08-01T04:18:18;26.80;52.90
71237;DHT22;58984;51.960;5.582;2022-08-01T04:20:46;26.80;53.00
71237;DHT22;58984;51.960;5.582;2022-08-01T04:23:11;26.80;53.10
71237;DHT22;58984;51.960;5.582;2022-08-01T04:25:37;26.70;53.00
71237;DHT22;58984;51.960;5.582;2022-08-01T04:28:05;26.70;53.00
71237;DHT22;58984;51.960;5.582;2022-08-01T04:30:34;26.70;53.00
71237;DHT22;58984;51.960;5.582;2022-08-01T04:33:01;26.70;53.00
71237;DHT22;58984;51.960;5.582;2022-08-01T04:35:30;26.70;53.00
71237;DHT22;58984;51.960;5.582;2022-08-01T04:37:57;26.70;53.00
71237;DHT22;58984;51.960;5.582;2022-08-01T04:40:24;26.70;53.00
71237;DHT22;58984;51.960;5.582;2022-08-01T04:42:51;26.70;53.00
71237;DHT22;58984;51.960;5.582;2022-08-01T04:45:16;26.70;53.00
71237;DHT22;58984;51.960;5.582;2022-08-01T04:47:42;26.70;53.10
71237;DHT22;58984;51.960;5.582;2022-08-01T04:50:08;26.70;53.00
71237;DHT22;58984;51.960;5.582;2022-08-01T04:52:34;26.70;53.10
71237;DHT22;58984;51.960;5.582;2022-08-01T04:55:00;26.70;53.10
71237;DHT22;58984;51.960;5.582;2022-08-01T04:57:25;26.70;53.10
71237;DHT22;58984;51.960;5.582;2022-08-01T04:59:51;26.60;53.10
71237;DHT22;58984;51.960;5.582;2022-08-01T05:02:22;26.70;53.10
71237;DHT22;58984;51.960;5.582;2022-08-01T05:04:47;26.70;53.20
71237;DHT22;58984;51.960;5.582;2022-08-01T05:07:13;26.70;53.20
71237;DHT22;58984;51.960;5.582;2022-08-01T05:09:39;26.70;53.20
71237;DHT22;58984;51.960;5.582;2022-08-01T05:12:06;26.60;53.10
71237;DHT22;58984;51.960;5.582;2022-08-01T05:14:32;26.70;53.20
71237;DHT22;58984;51.960;5.582;2022-08-01T05:16:58;26.70;53.20
71237;DHT22;58984;51.960;5.582;2022-08-01T05:19:25;26.70;53.20
71237;DHT22;58984;51.960;5.582;2022-08-01T05:21:50;26.70;53.20
71237;DHT22;58984;51.960;5.582;2022-08-01T05:24:16;26.70;53.20
71237;DHT22;58984;51.960;5.582;2022-08-01T05:26:41;26.70;53.20
71237;DHT22;58984;51.960;5.582;2022-08-01T05:29:07;26.70;53.10
71237;DHT22;58984;51.960;5.582;2022-08-01T05:31:32;26.70;53.20
71237;DHT22;58984;51.960;5.582;2022-08-01T05:34:02;26.60;53.10
71237;DHT22;58984;51.960;5.582;2022-08-01T05:36:28;26.70;53.20
71237;DHT22;58984;51.960;5.582;2022-08-01T05:38:53;26.70;53.20
71237;DHT22;58984;51.960;5.582;2022-08-01T05:41:19;26.70;53.20
71237;DHT22;58984;51.960;5.582;2022-08-01T05:43:44;26.70;53.10
71237;DHT22;58984;51.960;5.582;2022-08-01T05:46:09;26.60;53.10
71237;DHT22;58984;51.960;5.582;2022-08-01T05:48:35;26.70;53.20
71237;DHT22;58984;51.960;5.582;2022-08-01T05:51:00;26.70;53.20
71237;DHT22;58984;51.960;5.582;2022-08-01T05:53:26;26.70;53.20
71237;DHT22;58984;51.960;5.582;2022-08-01T05:55:51;26.70;53.20
71237;DHT22;58984;51.960;5.582;2022-08-01T05:58:17;26.70;53.20
71237;DHT22;58984;51.960;5.582;2022-08-01T06:00:42;26.70;53.20
71237;DHT22;58984;51.960;5.582;2022-08-01T06:03:08;26.70;53.20
71237;DHT22;58984;51.960;5.582;2022-08-01T06:05:33;26.70;53.20
71237;DHT22;58984;51.960;5.582;2022-08-01T06:07:59;26.70;53.20
71237;DHT22;58984;51.960;5.582;2022-08-01T06:10:24;26.70;53.10
71237;DHT22;58984;51.960;5.582;2022-08-01T06:12:50;26.70;53.20
71237;DHT22;58984;51.960;5.582;2022-08-01T06:15:15;26.70;53.20
71237;DHT22;58984;51.960;5.582;2022-08-01T06:17:40;26.70;53.20
71237;DHT22;58984;51.960;5.582;2022-08-01T06:20:06;26.60;53.10
71237;DHT22;58984;51.960;5.582;2022-08-01T06:22:32;26.70;53.20
71237;DHT22;58984;51.960;5.582;2022-08-01T06:24:58;26.70;53.20
71237;DHT22;58984;51.960;5.582;2022-08-01T06:27:23;26.70;53.10
71237;DHT22;58984;51.960;5.582;2022-08-01T06:29:50;26.70;53.20
71237;DHT22;58984;51.960;5.582;2022-08-01T06:32:19;26.70;53.20
71237;DHT22;58984;51.960;5.582;2022-08-01T06:34:44;26.70;53.10
71237;DHT22;58984;51.960;5.582;2022-08-01T06:37:09;26.70;53.00
71237;DHT22;58984;51.960;5.582;2022-08-01T06:39:35;26.70;53.10
71237;DHT22;58984;51.960;5.582;2022-08-01T06:42:01;26.70;53.00
71237;DHT22;58984;51.960;5.582;2022-08-01T06:44:26;26.70;53.00
71237;DHT22;58984;51.960;5.582;2022-08-01T06:46:52;26.70;53.00
71237;DHT22;58984;51.960;5.582;2022-08-01T06:49:17;26.70;53.00
71237;DHT22;58984;51.960;5.582;2022-08-01T06:51:43;26.70;53.00
71237;DHT22;58984;51.960;5.582;2022-08-01T06:54:08;26.70;53.00
71237;DHT22;58984;51.960;5.582;2022-08-01T06:56:34;26.70;53.00
71237;DHT22;58984;51.960;5.582;2022-08-01T06:59:00;26.70;53.00
71237;DHT22;58984;51.960;5.582;2022-08-01T07:01:27;26.80;53.00
71237;DHT22;58984;51.960;5.582;2022-08-01T07:03:53;26.80;53.10
71237;DHT22;58984;51.960;5.582;2022-08-01T07:06:18;26.80;53.10
71237;DHT22;58984;51.960;5.582;2022-08-01T07:08:44;26.80;53.20
71237;DHT22;58984;51.960;5.582;2022-08-01T07:11:09;26.80;53.20
71237;DHT22;58984;51.960;5.582;2022-08-01T07:13:35;26.70;53.20
71237;DHT22;58984;51.960;5.582;2022-08-01T07:16:00;26.80;53.20
71237;DHT22;58984;51.960;5.582;2022-08-01T07:18:26;26.80;53.20
71237;DHT22;58984;51.960;5.582;2022-08-01T07:20:51;26.80;53.20
71237;DHT22;58984;51.960;5.582;2022-08-01T07:23:17;26.80;53.20
71237;DHT22;58984;51.960;5.582;2022-08-01T07:25:42;26.80;53.10
71237;DHT22;58984;51.960;5.582;2022-08-01T07:28:08;26.80;53.10
71237;DHT22;58984;51.960;5.582;2022-08-01T07:30:34;26.80;53.10
71237;DHT22;58984;51.960;5.582;2022-08-01T07:32:59;26.80;53.20
71237;DHT22;58984;51.960;5.582;2022-08-01T07:35:25;26.80;53.30
71237;DHT22;58984;51.960;5.582;2022-08-01T07:37:51;26.80;53.30
71237;DHT22;58984;51.960;5.582;2022-08-01T07:40:18;26.80;53.40
71237;DHT22;58984;51.960;5.582;2022-08-01T07:42:44;26.80;53.50
71237;DHT22;58984;51.960;5.582;2022-08-01T07:45:10;26.80;53.60
71237;DHT22;58984;51.960;5.582;2022-08-01T07:47:36;26.80;53.60
71237;DHT22;58984;51.960;5.582;2022-08-01T07:50:02;26.80;53.50
71237;DHT22;58984;51.960;5.582;2022-08-01T07:52:28;26.80;53.50
71237;DHT22;58984;51.960;5.582;2022-08-01T07:54:55;26.80;53.60
71237;DHT22;58984;51.960;5.582;2022-08-01T07:57:21;26.80;53.60
71237;DHT22;58984;51.960;5.582;2022-08-01T07:59:47;26.80;53.70
71237;DHT22;58984;51.960;5.582;2022-08-01T08:02:12;26.80;53.60
71237;DHT22;58984;51.960;5.582;2022-08-01T08:04:38;26.90;53.70
71237;DHT22;58984;51.960;5.582;2022-08-01T08:07:03;26.80;53.70
71237;DHT22;58984;51.960;5.582;2022-08-01T08:09:29;26.80;53.70
71237;DHT22;58984;51.960;5.582;2022-08-01T08:11:54;26.80;53.70
71237;DHT22;58984;51.960;5.582;2022-08-01T08:14:20;26.80;53.70
71237;DHT22;58984;51.960;5.582;2022-08-01T08:16:47;26.80;53.70
71237;DHT22;58984;51.960;5.582;2022-08-01T08:19:13;26.80;53.70
71237;DHT22;58984;51.960;5.582;2022-08-01T08:21:39;26.80;53.70
71237;DHT22;58984;51.960;5.582;2022-08-01T08:24:05;26.80;53.70
71237;DHT22;58984;51.960;5.582;2022-08-01T08:26:46;26.80;53.70
71237;DHT22;58984;51.960;5.582;2022-08-01T08:29:12;26.80;53.70
71237;DHT22;58984;51.960;5.582;2022-08-01T08:31:37;26.80;53.70
71237;DHT22;58984;51.960;5.582;2022-08-01T08:34:03;26.80;53.70
71237;DHT22;58984;51.960;5.582;2022-08-01T08:36:28;26.80;53.70
71237;DHT22;58984;51.960;5.582;2022-08-01T08:38:54;26.80;53.70
71237;DHT22;58984;51.960;5.582;2022-08-01T08:41:20;26.80;53.70
71237;DHT22;58984;51.960;5.582;2022-08-01T08:43:46;26.90;53.70
71237;DHT22;58984;51.960;5.582;2022-08-01T08:46:12;26.80;53.70
71237;DHT22;58984;51.960;5.582;2022-08-01T08:48:39;26.80;53.70
71237;DHT22;58984;51.960;5.582;2022-08-01T08:51:05;26.90;53.70
71237;DHT22;58984;51.960;5.582;2022-08-01T08:53:31;26.80;53.80
71237;DHT22;58984;51.960;5.582;2022-08-01T08:55:58;26.90;54.10
71237;DHT22;58984;51.960;5.582;2022-08-01T08:58:25;26.80;54.10
71237;DHT22;58984;51.960;5.582;2022-08-01T09:00:51;26.90;54.20
71237;DHT22;58984;51.960;5.582;2022-08-01T09:03:17;26.90;54.20
71237;DHT22;58984;51.960;5.582;2022-08-01T09:05:42;26.80;54.10
71237;DHT22;58984;51.960;5.582;2022-08-01T09:08:09;26.90;54.20
71237;DHT22;58984;51.960;5.582;2022-08-01T09:10:34;26.90;54.30
71237;DHT22;58984;51.960;5.582;2022-08-01T09:13:10;26.90;54.20
71237;DHT22;58984;51.960;5.582;2022-08-01T09:15:50;26.80;54.30
71237;DHT22;58984;51.960;5.582;2022-08-01T09:18:32;26.90;54.30
71237;DHT22;58984;51.960;5.582;2022-08-01T09:23:31;26.90;54.50
71237;DHT22;58984;51.960;5.582;2022-08-01T09:25:57;26.80;54.40
71237;DHT22;58984;51.960;5.582;2022-08-01T09:28:26;26.90;54.50
71237;DHT22;58984;51.960;5.582;2022-08-01T09:30:52;26.90;54.40
71237;DHT22;58984;51.960;5.582;2022-08-01T09:33:17;26.90;54.40
71237;DHT22;58984;51.960;5.582;2022-08-01T09:35:43;26.80;54.30
71237;DHT22;58984;51.960;5.582;2022-08-01T09:38:17;26.80;54.30
71237;DHT22;58984;51.960;5.582;2022-08-01T09:40:47;26.90;54.40
71237;DHT22;58984;51.960;5.582;2022-08-01T09:43:13;26.80;54.50
71237;DHT22;58984;51.960;5.582;2022-08-01T09:45:38;26.90;54.50
71237;DHT22;58984;51.960;5.582;2022-08-01T09:48:10;26.90;54.50
71237;DHT22;58984;51.960;5.582;2022-08-01T09:50:44;26.90;54.60
71237;DHT22;58984;51.960;5.582;2022-08-01T09:53:10;26.90;54.60
71237;DHT22;58984;51.960;5.582;2022-08-01T09:55:37;26.90;54.60
71237;DHT22;58984;51.960;5.582;2022-08-01T09:58:03;26.90;54.60
71237;DHT22;58984;51.960;5.582;2022-08-01T10:00:29;26.80;54.50
71237;DHT22;58984;51.960;5.582;2022-08-01T10:02:55;26.80;54.50
71237;DHT22;58984;51.960;5.582;2022-08-01T10:05:30;26.80;54.50
71237;DHT22;58984;51.960;5.582;2022-08-01T10:07:57;26.80;54.50
71237;DHT22;58984;51.960;5.582;2022-08-01T10:10:22;26.80;54.50
71237;DHT22;58984;51.960;5.582;2022-08-01T10:12:48;26.80;54.50
71237;DHT22;58984;51.960;5.582;2022-08-01T10:17:05;26.80;54.20
71237;DHT22;58984;51.960;5.582;2022-08-01T10:19:32;26.60;56.30
71237;DHT22;58984;51.960;5.582;2022-08-01T10:21:58;26.60;56.30
71237;DHT22;58984;51.960;5.582;2022-08-01T10:24:26;26.50;56.40
71237;DHT22;58984;51.960;5.582;2022-08-01T10:26:56;26.40;56.30
71237;DHT22;58984;51.960;5.582;2022-08-01T10:29:26;26.40;56.30
71237;DHT22;58984;51.960;5.582;2022-08-01T10:31:52;26.40;56.20
71237;DHT22;58984;51.960;5.582;2022-08-01T10:34:18;26.40;56.20
71237;DHT22;58984;51.960;5.582;2022-08-01T10:36:46;26.40;56.20
71237;DHT22;58984;51.960;5.582;2022-08-01T10:39:12;26.30;56.10
71237;DHT22;58984;51.960;5.582;2022-08-01T10:41:41;26.30;56.20
71237;DHT22;58984;51.960;5.582;2022-08-01T10:44:08;26.30;56.10
71237;DHT22;58984;51.960;5.582;2022-08-01T10:46:38;26.30;57.90
71237;DHT22;58984;51.960;5.582;2022-08-01T10:49:10;26.40;59.40
71237;DHT22;58984;51.960;5.582;2022-08-01T10:51:38;26.50;60.40
71237;DHT22;58984;51.960;5.582;2022-08-01T10:54:09;26.70;59.30
71237;DHT22;58984;51.960;5.582;2022-08-01T10:56:40;26.60;58.90
71237;DHT22;58984;51.960;5.582;2022-08-01T10:59:07;26.70;58.40
71237;DHT22;58984;51.960;5.582;2022-08-01T11:01:33;26.70;58.30
71237;DHT22;58984;51.960;5.582;2022-08-01T11:12:01;26.60;58.40
71237;DHT22;58984;51.960;5.582;2022-08-01T11:14:29;26.60;58.40
71237;DHT22;58984;51.960;5.582;2022-08-01T11:16:54;26.80;58.10
71237;DHT22;58984;51.960;5.582;2022-08-01T11:19:20;26.70;58.70
71237;DHT22;58984;51.960;5.582;2022-08-01T11:27:19;26.80;58.00
71237;DHT22;58984;51.960;5.582;2022-08-01T11:32:47;26.90;58.50
71237;DHT22;58984;51.960;5.582;2022-08-01T11:35:13;26.90;57.20
71237;DHT22;58984;51.960;5.582;2022-08-01T11:37:39;27.00;56.40
71237;DHT22;58984;51.960;5.582;2022-08-01T11:42:43;26.90;56.90
71237;DHT22;58984;51.960;5.582;2022-08-01T11:45:09;27.00;57.00
71237;DHT22;58984;51.960;5.582;2022-08-01T11:47:48;27.00;56.20
71237;DHT22;58984;51.960;5.582;2022-08-01T11:50:30;26.90;56.30
71237;DHT22;58984;51.960;5.582;2022-08-01T11:55:24;27.00;56.20
71237;DHT22;58984;51.960;5.582;2022-08-01T11:57:59;27.00;56.20
71237;DHT22;58984;51.960;5.582;2022-08-01T12:00:25;26.90;56.30
71237;DHT22;58984;51.960;5.582;2022-08-01T12:02:59;27.00;56.40
71237;DHT22;58984;51.960;5.582;2022-08-01T12:05:26;27.00;56.50
71237;DHT22;58984;51.960;5.582;2022-08-01T12:07:53;27.10;56.60
71237;DHT22;58984;51.960;5.582;2022-08-01T12:10:21;27.10;56.70
71237;DHT22;58984;51.960;5.582;2022-08-01T12:12:58;27.00;56.60
71237;DHT22;58984;51.960;5.582;2022-08-01T12:15:24;27.00;56.70
71237;DHT22;58984;51.960;5.582;2022-08-01T12:17:59;27.10;56.70
71237;DHT22;58984;51.960;5.582;2022-08-01T12:20:28;27.00;56.30
71237;DHT22;58984;51.960;5.582;2022-08-01T12:22:55;27.10;56.30
71237;DHT22;58984;51.960;5.582;2022-08-01T12:25:21;27.10;56.40
71237;DHT22;58984;51.960;5.582;2022-08-01T12:27:47;27.10;56.50
71237;DHT22;58984;51.960;5.582;2022-08-01T12:30:15;27.10;57.40
71237;DHT22;58984;51.960;5.582;2022-08-01T12:32:42;27.10;56.30
71237;DHT22;58984;51.960;5.582;2022-08-01T12:35:14;27.10;56.60
71237;DHT22;58984;51.960;5.582;2022-08-01T12:37:46;27.10;56.60
71237;DHT22;58984;51.960;5.582;2022-08-01T12:42:43;27.20;56.50
71237;DHT22;58984;51.960;5.582;2022-08-01T12:45:14;27.20;56.20
71237;DHT22;58984;51.960;5.582;2022-08-01T12:47:40;27.20;56.20
71237;DHT22;58984;51.960;5.582;2022-08-01T12:50:08;27.20;56.10
71237;DHT22;58984;51.960;5.582;2022-08-01T12:52:36;27.20;55.90
71237;DHT22;58984;51.960;5.582;2022-08-01T12:55:17;27.20;56.20
71237;DHT22;58984;51.960;5.582;2022-08-01T12:57:45;27.10;56.00
71237;DHT22;58984;51.960;5.582;2022-08-01T13:02:41;27.40;55.70
71237;DHT22;58984;51.960;5.582;2022-08-01T13:05:08;27.40;55.30
71237;DHT22;58984;51.960;5.582;2022-08-01T13:07:36;27.30;55.20
71237;DHT22;58984;51.960;5.582;2022-08-01T13:10:03;27.30;55.20
71237;DHT22;58984;51.960;5.582;2022-08-01T13:12:30;27.30;55.00
71237;DHT22;58984;51.960;5.582;2022-08-01T13:14:56;27.30;55.10
71237;DHT22;58984;51.960;5.582;2022-08-01T13:17:34;27.30;54.80
71237;DHT22;58984;51.960;5.582;2022-08-01T13:20:05;27.30;55.00
71237;DHT22;58984;51.960;5.582;2022-08-01T13:22:35;27.40;54.80
71237;DHT22;58984;51.960;5.582;2022-08-01T13:25:11;27.40;54.80
71237;DHT22;58984;51.960;5.582;2022-08-01T13:27:37;27.30;54.70
71237;DHT22;58984;51.960;5.582;2022-08-01T13:30:14;27.50;54.70
71237;DHT22;58984;51.960;5.582;2022-08-01T13:32:40;27.40;54.50
71237;DHT22;58984;51.960;5.582;2022-08-01T13:35:08;27.50;54.40
71237;DHT22;58984;51.960;5.582;2022-08-01T13:37:33;27.50;54.50
71237;DHT22;58984;51.960;5.582;2022-08-01T13:39:59;27.60;54.50
71237;DHT22;58984;51.960;5.582;2022-08-01T13:42:25;27.60;54.40
71237;DHT22;58984;51.960;5.582;2022-08-01T13:44:50;27.60;54.20
71237;DHT22;58984;51.960;5.582;2022-08-01T13:47:16;27.60;54.20
71237;DHT22;58984;51.960;5.582;2022-08-01T13:49:41;27.70;54.30
71237;DHT22;58984;51.960;5.582;2022-08-01T13:52:07;27.70;54.30
71237;DHT22;58984;51.960;5.582;2022-08-01T13:54:33;27.70;54.30
71237;DHT22;58984;51.960;5.582;2022-08-01T13:56:58;27.70;54.30
71237;DHT22;58984;51.960;5.582;2022-08-01T13:59:24;27.70;54.30
71237;DHT22;58984;51.960;5.582;2022-08-01T14:01:49;27.80;54.30
71237;DHT22;58984;51.960;5.582;2022-08-01T14:04:15;27.80;54.10
71237;DHT22;58984;51.960;5.582;2022-08-01T14:06:40;27.80;53.90
71237;DHT22;58984;51.960;5.582;2022-08-01T14:09:07;27.80;54.00
71237;DHT22;58984;51.960;5.582;2022-08-01T14:11:33;27.90;54.00
71237;DHT22;58984;51.960;5.582;2022-08-01T14:13:58;27.80;53.80
71237;DHT22;58984;51.960;5.582;2022-08-01T14:16:24;27.80;53.90
71237;DHT22;58984;51.960;5.582;2022-08-01T14:18:50;27.90;54.00
71237;DHT22;58984;51.960;5.582;2022-08-01T14:21:16;27.90;53.90
71237;DHT22;58984;51.960;5.582;2022-08-01T14:23:41;27.90;54.00
71237;DHT22;58984;51.960;5.582;2022-08-01T14:26:10;27.90;53.80
71237;DHT22;58984;51.960;5.582;2022-08-01T14:28:36;27.90;53.70
71237;DHT22;58984;51.960;5.582;2022-08-01T14:31:02;27.90;53.60
71237;DHT22;58984;51.960;5.582;2022-08-01T14:33:28;27.90;53.60
71237;DHT22;58984;51.960;5.582;2022-08-01T14:35:54;27.90;53.40
71237;DHT22;58984;51.960;5.582;2022-08-01T14:38:20;28.00;53.20
71237;DHT22;58984;51.960;5.582;2022-08-01T14:40:45;27.90;53.20
71237;DHT22;58984;51.960;5.582;2022-08-01T14:43:17;27.90;53.30
71237;DHT22;58984;51.960;5.582;2022-08-01T14:45:43;28.00;53.20
71237;DHT22;58984;51.960;5.582;2022-08-01T14:48:09;28.00;53.30
71237;DHT22;58984;51.960;5.582;2022-08-01T14:50:34;28.00;53.30
71237;DHT22;58984;51.960;5.582;2022-08-01T14:53:00;28.00;53.20
71237;DHT22;58984;51.960;5.582;2022-08-01T14:55:26;27.90;52.80
71237;DHT22;58984;51.960;5.582;2022-08-01T14:57:52;28.00;53.20
71237;DHT22;58984;51.960;5.582;2022-08-01T15:00:18;28.00;53.20
71237;DHT22;58984;51.960;5.582;2022-08-01T15:02:44;28.00;53.20
71237;DHT22;58984;51.960;5.582;2022-08-01T15:05:09;28.00;53.30
71237;DHT22;58984;51.960;5.582;2022-08-01T15:07:36;28.00;53.20
71237;DHT22;58984;51.960;5.582;2022-08-01T15:10:06;28.00;53.30
71237;DHT22;58984;51.960;5.582;2022-08-01T15:12:32;28.00;53.20
71237;DHT22;58984;51.960;5.582;2022-08-01T15:14:57;28.00;53.10
71237;DHT22;58984;51.960;5.582;2022-08-01T15:17:30;28.00;52.90
71237;DHT22;58984;51.960;5.582;2022-08-01T15:20:03;27.90;52.70
71237;DHT22;58984;51.960;5.582;2022-08-01T15:22:29;28.00;52.80
71237;DHT22;58984;51.960;5.582;2022-08-01T15:24:56;28.00;52.50
71237;DHT22;58984;51.960;5.582;2022-08-01T15:27:22;27.90;52.40
71237;DHT22;58984;51.960;5.582;2022-08-01T15:29:48;27.90;52.40
71237;DHT22;58984;51.960;5.582;2022-08-01T15:32:14;28.00;52.40
71237;DHT22;58984;51.960;5.582;2022-08-01T15:34:41;27.90;52.20
71237;DHT22;58984;51.960;5.582;2022-08-01T15:37:07;27.90;52.00
71237;DHT22;58984;51.960;5.582;2022-08-01T15:39:33;27.90;51.90
71237;DHT22;58984;51.960;5.582;2022-08-01T15:42:04;27.90;52.00
71237;DHT22;58984;51.960;5.582;2022-08-01T15:44:31;27.90;52.00
71237;DHT22;58984;51.960;5.582;2022-08-01T15:46:56;27.90;51.10
71237;DHT22;58984;51.960;5.582;2022-08-01T15:49:22;27.90;50.80
71237;DHT22;58984;51.960;5.582;2022-08-01T15:51:49;27.90;51.20
71237;DHT22;58984;51.960;5.582;2022-08-01T15:54:16;27.90;51.40
71237;DHT22;58984;51.960;5.582;2022-08-01T15:56:41;27.90;51.40
71237;DHT22;58984;51.960;5.582;2022-08-01T15:59:07;27.80;51.20
71237;DHT22;58984;51.960;5.582;2022-08-01T16:01:33;27.80;51.10
71237;DHT22;58984;51.960;5.582;2022-08-01T16:03:58;27.80;51.10
71237;DHT22;58984;51.960;5.582;2022-08-01T16:06:25;27.80;51.10
71237;DHT22;58984;51.960;5.582;2022-08-01T16:08:50;27.80;51.10
71237;DHT22;58984;51.960;5.582;2022-08-01T16:11:17;27.80;51.00
71237;DHT22;58984;51.960;5.582;2022-08-01T16:13:43;27.80;51.50